createdAt,value
2022-11-30T00:00:31.287Z,7.10
2022-11-30T00:01:31.288Z,7.06
2022-11-30T00:02:31.408Z,7.05
2022-11-30T00:03:31.298Z,7.05
2022-11-30T00:04:31.258Z,7.05
2022-11-30T00:05:31.248Z,7.02
2022-11-30T00:06:31.218Z,7.00
2022-11-30T00:07:31.300Z,7.00
2022-11-30T00:08:31.191Z,7.00
2022-11-30T00:09:31.208Z,7.00
2022-11-30T00:10:31.203Z,6.99
2022-11-30T00:11:31.193Z,6.96
2022-11-30T00:12:31.153Z,6.96
2022-11-30T00:13:31.159Z,6.95
2022-11-30T00:14:31.128Z,6.95
2022-11-30T00:15:31.160Z,6.93
2022-11-30T00:16:31.163Z,6.93
2022-11-30T00:17:31.106Z,6.92
2022-11-30T00:18:31.105Z,6.89
2022-11-30T00:19:31.087Z,6.89
2022-11-30T00:20:31.090Z,6.89
2022-11-30T00:21:31.068Z,6.89
2022-11-30T00:22:31.038Z,6.88
2022-11-30T00:23:31.039Z,6.88
2022-11-30T00:24:31.019Z,6.87
2022-11-30T00:25:31.038Z,6.87
2022-11-30T00:26:31.007Z,6.87
2022-11-30T00:27:30.986Z,6.88
2022-11-30T00:28:30.967Z,6.87
2022-11-30T00:29:31.565Z,6.87
2022-11-30T00:30:30.999Z,6.84
2022-11-30T00:31:30.977Z,6.85
2022-11-30T00:32:30.939Z,6.84
2022-11-30T00:33:30.927Z,6.84
2022-11-30T00:34:30.918Z,6.87
2022-11-30T00:35:30.906Z,6.84
2022-11-30T00:36:30.966Z,6.84
2022-11-30T00:37:30.899Z,6.82
2022-11-30T00:38:30.859Z,6.81
2022-11-30T00:39:35.308Z,6.82
2022-11-30T00:40:30.857Z,6.81
2022-11-30T00:41:30.871Z,6.81
2022-11-30T00:42:30.818Z,6.79
2022-11-30T00:43:30.831Z,6.81
2022-11-30T00:44:30.799Z,6.81
2022-11-30T00:45:30.804Z,6.81
2022-11-30T00:46:30.784Z,6.78
2022-11-30T00:47:30.887Z,6.79
2022-11-30T00:48:30.763Z,6.77
2022-11-30T00:49:30.799Z,6.75
2022-11-30T00:50:30.728Z,6.74
2022-11-30T00:51:30.747Z,6.74
2022-11-30T00:52:30.711Z,6.72
2022-11-30T00:53:30.709Z,6.72
2022-11-30T00:54:30.678Z,6.72
2022-11-30T00:55:30.667Z,6.74
2022-11-30T00:56:30.656Z,6.72
2022-11-30T00:57:30.695Z,6.70
2022-11-30T00:58:30.636Z,6.70
2022-11-30T00:59:30.651Z,6.67
2022-11-30T01:00:30.611Z,6.67
2022-11-30T01:01:30.668Z,6.69
2022-11-30T01:02:30.622Z,6.67
2022-11-30T01:03:30.621Z,6.66
2022-11-30T01:04:30.572Z,6.63
2022-11-30T01:05:30.566Z,6.62
2022-11-30T01:06:30.547Z,6.60
2022-11-30T01:07:30.620Z,6.60
2022-11-30T01:08:30.543Z,6.60
2022-11-30T01:09:30.586Z,6.60
2022-11-30T01:10:30.500Z,6.59
2022-11-30T01:11:30.527Z,6.60
2022-11-30T01:12:30.487Z,6.56
2022-11-30T01:13:30.487Z,6.57
2022-11-30T01:14:30.455Z,6.57
2022-11-30T01:15:30.533Z,6.57
2022-11-30T01:16:30.439Z,6.59
2022-11-30T01:17:30.447Z,6.59
2022-11-30T01:18:30.439Z,6.59
2022-11-30T01:19:30.448Z,6.59
2022-11-30T01:20:30.400Z,6.60
2022-11-30T01:21:30.388Z,6.60
2022-11-30T01:22:30.391Z,6.57
2022-11-30T01:23:30.375Z,6.56
2022-11-30T01:24:30.358Z,6.57
2022-11-30T01:25:30.340Z,6.57
2022-11-30T01:26:30.356Z,6.59
2022-11-30T01:27:30.319Z,6.57
2022-11-30T01:28:30.308Z,6.56
2022-11-30T01:29:30.360Z,6.49
2022-11-30T01:30:30.309Z,6.45
2022-11-30T01:31:30.287Z,6.38
2022-11-30T01:32:30.252Z,6.35
2022-11-30T01:33:30.261Z,6.33
2022-11-30T01:34:30.276Z,6.31
2022-11-30T01:35:30.239Z,6.30
2022-11-30T01:36:30.211Z,6.28
2022-11-30T01:37:30.210Z,6.26
2022-11-30T01:38:30.208Z,6.26
2022-11-30T01:39:30.213Z,6.26
2022-11-30T01:40:30.217Z,6.24
2022-11-30T01:41:30.177Z,6.22
2022-11-30T01:42:30.136Z,6.22
2022-11-30T01:43:30.180Z,6.24
2022-11-30T01:44:30.160Z,6.24
2022-11-30T01:45:30.128Z,6.26
2022-11-30T01:46:30.137Z,6.26
2022-11-30T01:47:30.108Z,6.26
2022-11-30T01:48:30.076Z,6.24
2022-11-30T01:49:30.110Z,6.22
2022-11-30T01:50:30.999Z,6.19
2022-11-30T01:51:30.051Z,6.20
2022-11-30T01:52:30.056Z,6.16
2022-11-30T01:53:30.048Z,6.14
2022-11-30T01:54:30.037Z,6.14
2022-11-30T01:55:30.031Z,6.12
2022-11-30T01:56:30.013Z,6.12
2022-11-30T01:57:29.988Z,6.11
2022-11-30T01:58:29.984Z,6.11
2022-11-30T01:59:29.985Z,6.11
2022-11-30T02:00:29.948Z,6.12
2022-11-30T02:01:29.998Z,6.14
2022-11-30T02:02:29.970Z,6.16
2022-11-30T02:03:29.920Z,6.16
2022-11-30T02:04:29.932Z,6.16
2022-11-30T02:05:29.898Z,6.16
2022-11-30T02:06:29.885Z,6.14
2022-11-30T02:07:29.996Z,6.14
2022-11-30T02:08:29.978Z,6.14
2022-11-30T02:09:29.856Z,6.11
2022-11-30T02:10:29.860Z,6.11
2022-11-30T02:11:29.830Z,6.08
2022-11-30T02:12:29.826Z,6.07
2022-11-30T02:13:29.821Z,6.07
2022-11-30T02:14:29.800Z,6.04
2022-11-30T02:15:29.887Z,6.04
2022-11-30T02:16:29.810Z,6.02
2022-11-30T02:17:29.769Z,6.02
2022-11-30T02:18:29.754Z,6.02
2022-11-30T02:19:29.761Z,5.99
2022-11-30T02:20:29.721Z,5.99
2022-11-30T02:21:29.756Z,5.99
2022-11-30T02:22:29.718Z,5.98
2022-11-30T02:23:29.718Z,5.99
2022-11-30T02:24:29.762Z,5.98
2022-11-30T02:25:29.672Z,5.97
2022-11-30T02:26:29.663Z,5.98
2022-11-30T02:27:29.679Z,5.98
2022-11-30T02:28:29.636Z,5.97
2022-11-30T02:29:29.630Z,5.98
2022-11-30T02:30:29.615Z,5.97
2022-11-30T02:31:29.664Z,5.98
2022-11-30T02:32:29.631Z,5.98
2022-11-30T02:33:29.617Z,5.99
2022-11-30T02:34:29.621Z,5.98
2022-11-30T02:35:29.560Z,5.94
2022-11-30T02:36:29.548Z,5.97
2022-11-30T02:37:29.561Z,5.98
2022-11-30T02:38:29.536Z,5.97
2022-11-30T02:39:29.522Z,5.99
2022-11-30T02:40:29.497Z,6.01
2022-11-30T02:41:33.650Z,6.02
2022-11-30T02:42:30.506Z,6.04
2022-11-30T02:43:29.478Z,6.04
2022-11-30T02:44:29.462Z,6.04
2022-11-30T02:45:29.456Z,6.07
2022-11-30T02:46:29.484Z,6.05
2022-11-30T02:47:29.469Z,6.05
2022-11-30T02:48:29.442Z,6.05
2022-11-30T02:49:29.422Z,6.02
2022-11-30T02:50:29.390Z,6.04
2022-11-30T02:51:29.421Z,6.04
2022-11-30T02:52:29.369Z,6.04
2022-11-30T02:53:29.369Z,6.04
2022-11-30T02:54:29.381Z,6.04
2022-11-30T02:55:29.374Z,6.02
2022-11-30T02:56:29.321Z,6.02
2022-11-30T02:57:29.329Z,6.01
2022-11-30T02:58:29.311Z,5.99
2022-11-30T02:59:29.319Z,5.98
2022-11-30T03:00:29.282Z,5.97
2022-11-30T03:01:29.314Z,5.94
2022-11-30T03:02:29.283Z,5.94
2022-11-30T03:03:29.270Z,5.94
2022-11-30T03:04:29.259Z,5.97
2022-11-30T03:05:29.233Z,5.97
2022-11-30T03:06:29.222Z,5.94
2022-11-30T03:07:29.232Z,5.97
2022-11-30T03:08:29.196Z,5.97
2022-11-30T03:09:29.210Z,5.97
2022-11-30T03:10:29.174Z,5.98
2022-11-30T03:11:29.202Z,5.97
2022-11-30T03:12:29.154Z,5.94
2022-11-30T03:13:29.163Z,5.94
2022-11-30T03:14:29.132Z,5.97
2022-11-30T03:15:29.125Z,5.94
2022-11-30T03:16:29.118Z,5.94
2022-11-30T03:17:29.101Z,5.93
2022-11-30T03:18:29.112Z,5.94
2022-11-30T03:19:29.082Z,5.97
2022-11-30T03:20:29.060Z,5.98
2022-11-30T03:21:29.078Z,5.98
2022-11-30T03:22:29.044Z,5.99
2022-11-30T03:23:29.030Z,5.98
2022-11-30T03:24:29.019Z,6.01
2022-11-30T03:25:29.011Z,5.99
2022-11-30T03:26:28.999Z,6.01
2022-11-30T03:27:28.999Z,6.01
2022-11-30T03:28:28.991Z,6.01
2022-11-30T03:29:28.960Z,5.99
2022-11-30T03:30:28.952Z,6.01
2022-11-30T03:31:29.015Z,6.01
2022-11-30T03:32:28.935Z,6.01
2022-11-30T03:33:28.910Z,5.99
2022-11-30T03:34:28.922Z,6.04
2022-11-30T03:35:28.882Z,6.04
2022-11-30T03:36:28.911Z,6.05
2022-11-30T03:37:28.876Z,6.04
2022-11-30T03:38:29.798Z,6.04
2022-11-30T03:39:28.860Z,6.04
2022-11-30T03:40:28.892Z,6.04
2022-11-30T03:41:28.854Z,6.04
2022-11-30T03:42:28.823Z,6.02
2022-11-30T03:43:28.817Z,6.01
2022-11-30T03:44:28.791Z,6.02
2022-11-30T03:45:28.795Z,6.04
2022-11-30T03:46:28.848Z,6.04
2022-11-30T03:47:28.759Z,6.04
2022-11-30T03:48:28.759Z,6.02
2022-11-30T03:49:28.743Z,6.05
2022-11-30T03:50:28.739Z,6.05
2022-11-30T03:51:28.739Z,6.05
2022-11-30T03:52:28.739Z,6.05
2022-11-30T03:53:28.691Z,6.07
2022-11-30T03:54:28.678Z,6.07
2022-11-30T03:55:28.678Z,6.05
2022-11-30T03:56:28.680Z,6.05
2022-11-30T03:57:28.671Z,6.07
2022-11-30T03:58:28.640Z,6.05
2022-11-30T03:59:28.628Z,6.07
2022-11-30T04:00:28.625Z,6.05
2022-11-30T04:01:28.655Z,6.04
2022-11-30T04:02:28.641Z,6.05
2022-11-30T04:03:28.573Z,6.05
2022-11-30T04:04:28.635Z,6.04
2022-11-30T04:05:28.559Z,6.04
2022-11-30T04:06:28.580Z,6.04
2022-11-30T04:07:28.567Z,6.05
2022-11-30T04:08:28.519Z,6.04
2022-11-30T04:09:28.511Z,6.05
2022-11-30T04:10:28.511Z,6.07
2022-11-30T04:11:28.523Z,6.05
2022-11-30T04:12:28.512Z,6.07
2022-11-30T04:13:28.459Z,6.07
2022-11-30T04:14:28.475Z,6.08
2022-11-30T04:15:28.451Z,6.07
2022-11-30T04:16:28.490Z,6.08
2022-11-30T04:17:28.440Z,6.07
2022-11-30T04:18:28.431Z,6.05
2022-11-30T04:19:28.399Z,6.07
2022-11-30T04:20:28.412Z,6.08
2022-11-30T04:21:28.379Z,6.07
2022-11-30T04:22:28.419Z,6.07
2022-11-30T04:23:28.360Z,6.07
2022-11-30T04:24:28.351Z,6.07
2022-11-30T04:25:28.324Z,6.07
2022-11-30T04:26:28.343Z,6.08
2022-11-30T04:27:28.731Z,6.08
2022-11-30T04:28:28.313Z,6.08
2022-11-30T04:29:28.293Z,6.07
2022-11-30T04:30:28.291Z,6.08
2022-11-30T04:31:28.312Z,6.08
2022-11-30T04:32:28.262Z,6.07
2022-11-30T04:33:28.271Z,6.07
2022-11-30T04:34:28.252Z,6.05
2022-11-30T04:35:28.221Z,6.08
2022-11-30T04:36:28.213Z,6.08
2022-11-30T04:37:28.202Z,6.08
2022-11-30T04:38:28.199Z,6.08
2022-11-30T04:39:28.189Z,6.08
2022-11-30T04:40:28.161Z,6.09
2022-11-30T04:41:28.170Z,6.09
2022-11-30T04:42:28.160Z,6.11
2022-11-30T04:43:28.140Z,6.11
2022-11-30T04:44:28.148Z,6.12
2022-11-30T04:45:31.271Z,6.12
2022-11-30T04:46:29.150Z,6.12
2022-11-30T04:47:28.109Z,6.11
2022-11-30T04:48:28.092Z,6.11
2022-11-30T04:49:28.093Z,6.08
2022-11-30T04:50:28.069Z,6.09
2022-11-30T04:51:28.040Z,6.09
2022-11-30T04:52:28.041Z,6.08
2022-11-30T04:53:28.030Z,6.08
2022-11-30T04:54:28.032Z,6.08
2022-11-30T04:55:28.053Z,6.09
2022-11-30T04:56:28.001Z,6.09
2022-11-30T04:57:27.968Z,6.12
2022-11-30T04:58:27.980Z,6.09
2022-11-30T04:59:27.953Z,6.09
2022-11-30T05:00:27.960Z,6.09
2022-11-30T05:01:27.988Z,6.09
2022-11-30T05:02:27.929Z,6.09
2022-11-30T05:03:27.908Z,6.09
2022-11-30T05:04:27.969Z,6.09
2022-11-30T05:05:27.901Z,6.08
2022-11-30T05:06:27.908Z,6.08
2022-11-30T05:07:27.911Z,6.09
2022-11-30T05:08:27.880Z,6.08
2022-11-30T05:09:27.849Z,6.09
2022-11-30T05:10:27.848Z,6.09
2022-11-30T05:11:27.841Z,6.09
2022-11-30T05:12:27.813Z,6.09
2022-11-30T05:13:27.805Z,6.09
2022-11-30T05:14:27.801Z,6.12
2022-11-30T05:15:27.796Z,6.12
2022-11-30T05:16:27.873Z,6.09
2022-11-30T05:17:27.765Z,6.11
2022-11-30T05:18:27.761Z,6.11
2022-11-30T05:19:27.730Z,6.09
2022-11-30T05:20:27.732Z,6.11
2022-11-30T05:21:27.701Z,6.09
2022-11-30T05:22:27.735Z,6.08
2022-11-30T05:23:27.692Z,6.09
2022-11-30T05:24:27.704Z,6.11
2022-11-30T05:25:27.654Z,6.11
2022-11-30T05:26:27.653Z,6.08
2022-11-30T05:27:27.892Z,6.09
2022-11-30T05:28:27.653Z,6.09
2022-11-30T05:29:27.639Z,6.09
2022-11-30T05:30:27.642Z,6.11
2022-11-30T05:31:27.668Z,6.09
2022-11-30T05:32:27.601Z,6.11
2022-11-30T05:33:27.589Z,6.09
2022-11-30T05:34:27.577Z,6.11
2022-11-30T05:35:27.557Z,6.12
2022-11-30T05:36:27.553Z,6.12
2022-11-30T05:37:27.615Z,6.14
2022-11-30T05:38:27.573Z,6.14
2022-11-30T05:39:27.582Z,6.16
2022-11-30T05:40:27.522Z,6.14
2022-11-30T05:41:27.512Z,6.14
2022-11-30T05:42:27.572Z,6.16
2022-11-30T05:43:27.473Z,6.17
2022-11-30T05:44:27.469Z,6.17
2022-11-30T05:45:27.449Z,6.17
2022-11-30T05:46:27.470Z,6.16
2022-11-30T05:47:27.409Z,6.17
2022-11-30T05:48:27.429Z,6.17
2022-11-30T05:49:27.430Z,6.19
2022-11-30T05:50:27.390Z,6.19
2022-11-30T05:51:27.382Z,6.19
2022-11-30T05:52:27.361Z,6.20
2022-11-30T05:53:27.375Z,6.20
2022-11-30T05:54:27.349Z,6.20
2022-11-30T05:55:27.349Z,6.20
2022-11-30T05:56:27.338Z,6.20
2022-11-30T05:57:27.309Z,6.19
2022-11-30T05:58:27.341Z,6.20
2022-11-30T05:59:27.277Z,6.20
2022-11-30T06:00:27.273Z,6.22
2022-11-30T06:01:27.265Z,6.20
2022-11-30T06:02:28.520Z,6.20
2022-11-30T06:03:27.322Z,6.20
2022-11-30T06:04:27.239Z,6.19
2022-11-30T06:05:27.213Z,6.17
2022-11-30T06:06:27.221Z,6.19
2022-11-30T06:07:27.253Z,6.17
2022-11-30T06:08:27.205Z,6.19
2022-11-30T06:09:27.194Z,6.19
2022-11-30T06:10:27.173Z,6.20
2022-11-30T06:11:27.150Z,6.20
2022-11-30T06:12:27.170Z,6.22
2022-11-30T06:13:28.939Z,6.22
2022-11-30T06:14:27.125Z,6.20
2022-11-30T06:15:27.124Z,6.22
2022-11-30T06:16:27.180Z,6.20
2022-11-30T06:17:27.090Z,6.22
2022-11-30T06:18:27.103Z,6.24
2022-11-30T06:19:27.062Z,6.19
2022-11-30T06:20:27.102Z,6.20
2022-11-30T06:21:27.090Z,6.19
2022-11-30T06:22:27.062Z,6.17
2022-11-30T06:23:27.014Z,6.19
2022-11-30T06:24:27.032Z,6.19
2022-11-30T06:25:27.001Z,6.19
2022-11-30T06:26:27.143Z,6.20
2022-11-30T06:27:26.978Z,6.19
2022-11-30T06:28:26.994Z,6.17
2022-11-30T06:29:26.945Z,6.20
2022-11-30T06:30:26.961Z,6.19
2022-11-30T06:31:27.155Z,6.22
2022-11-30T06:32:26.924Z,6.20
2022-11-30T06:33:26.910Z,6.20
2022-11-30T06:34:26.943Z,6.22
2022-11-30T06:35:26.910Z,6.24
2022-11-30T06:36:30.112Z,6.22
2022-11-30T06:37:27.882Z,6.24
2022-11-30T06:38:26.905Z,6.26
2022-11-30T06:39:49.925Z,6.24
2022-11-30T06:40:27.846Z,6.24
2022-11-30T06:41:26.831Z,6.22
2022-11-30T06:42:26.843Z,6.19
2022-11-30T06:43:26.798Z,6.20
2022-11-30T06:44:26.803Z,6.20
2022-11-30T06:45:26.835Z,6.20
2022-11-30T06:46:26.783Z,6.19
2022-11-30T06:47:26.751Z,6.20
2022-11-30T06:48:26.762Z,6.20
2022-11-30T06:49:26.731Z,6.20
2022-11-30T06:50:26.715Z,6.19
2022-11-30T06:51:26.710Z,6.16
2022-11-30T06:52:26.723Z,6.19
2022-11-30T06:53:26.687Z,6.19
2022-11-30T06:54:26.683Z,6.19
2022-11-30T06:55:26.658Z,6.17
2022-11-30T06:56:26.670Z,6.17
2022-11-30T06:57:26.635Z,6.16
2022-11-30T06:58:26.654Z,6.14
2022-11-30T06:59:26.611Z,6.16
2022-11-30T07:00:26.615Z,6.14
2022-11-30T07:01:26.701Z,6.16
2022-11-30T07:02:26.605Z,6.16
2022-11-30T07:03:26.638Z,6.17
2022-11-30T07:04:26.680Z,6.17
2022-11-30T07:05:26.556Z,6.17
2022-11-30T07:06:26.602Z,6.17
2022-11-30T07:07:26.566Z,6.20
2022-11-30T07:08:26.581Z,6.19
2022-11-30T07:09:26.511Z,6.20
2022-11-30T07:10:26.503Z,6.19
2022-11-30T07:11:26.491Z,6.19
2022-11-30T07:12:26.559Z,6.19
2022-11-30T07:13:26.484Z,6.19
2022-11-30T07:14:26.632Z,6.20
2022-11-30T07:15:26.445Z,6.20
2022-11-30T07:16:26.530Z,6.20
2022-11-30T07:17:26.465Z,6.17
2022-11-30T07:18:31.653Z,6.16
2022-11-30T07:19:27.380Z,6.17
2022-11-30T07:20:26.395Z,6.16
2022-11-30T07:21:26.393Z,6.17
2022-11-30T07:22:26.392Z,6.17
2022-11-30T07:23:26.355Z,6.17
2022-11-30T07:24:26.364Z,6.16
2022-11-30T07:25:26.320Z,6.17
2022-11-30T07:26:26.332Z,6.16
2022-11-30T07:27:26.335Z,6.19
2022-11-30T07:28:26.299Z,6.17
2022-11-30T07:29:26.283Z,6.17
2022-11-30T07:30:26.280Z,6.19
2022-11-30T07:31:26.304Z,6.17
2022-11-30T07:32:26.301Z,6.17
2022-11-30T07:33:26.244Z,6.17
2022-11-30T07:34:26.234Z,6.16
2022-11-30T07:35:26.220Z,6.17
2022-11-30T07:36:26.219Z,6.17
2022-11-30T07:37:26.200Z,6.17
2022-11-30T07:38:26.183Z,6.17
2022-11-30T07:39:26.180Z,6.22
2022-11-30T07:40:26.213Z,6.20
2022-11-30T07:41:26.152Z,6.22
2022-11-30T07:42:26.145Z,6.20
2022-11-30T07:43:26.124Z,6.20
2022-11-30T07:44:26.203Z,6.20
2022-11-30T07:45:26.100Z,6.19
2022-11-30T07:46:26.083Z,6.20
2022-11-30T07:47:26.232Z,6.22
2022-11-30T07:48:26.073Z,6.19
2022-11-30T07:49:26.065Z,6.20
2022-11-30T07:50:26.104Z,6.20
2022-11-30T07:51:26.048Z,6.20
2022-11-30T07:52:26.024Z,6.22
2022-11-30T07:53:26.042Z,6.22
2022-11-30T07:54:26.009Z,6.19
2022-11-30T07:55:25.999Z,6.20
2022-11-30T07:56:25.980Z,6.22
2022-11-30T07:57:25.992Z,6.20
2022-11-30T07:58:25.980Z,6.20
2022-11-30T07:59:25.953Z,6.20
2022-11-30T08:00:25.935Z,6.22
2022-11-30T08:01:26.005Z,6.22
2022-11-30T08:02:26.070Z,6.24
2022-11-30T08:03:25.922Z,6.24
2022-11-30T08:04:26.103Z,6.22
2022-11-30T08:05:25.893Z,6.20
2022-11-30T08:06:25.880Z,6.19
2022-11-30T08:07:25.937Z,6.19
2022-11-30T08:08:25.862Z,6.17
2022-11-30T08:09:25.876Z,6.19
2022-11-30T08:10:25.856Z,6.19
2022-11-30T08:11:25.825Z,6.19
2022-11-30T08:12:25.792Z,6.19
2022-11-30T08:13:25.813Z,6.20
2022-11-30T08:14:25.782Z,6.20
2022-11-30T08:15:32.079Z,6.20
2022-11-30T08:16:26.873Z,6.22
2022-11-30T08:17:25.745Z,6.22
2022-11-30T08:18:25.743Z,6.24
2022-11-30T08:19:25.737Z,6.24
2022-11-30T08:20:25.725Z,6.26
2022-11-30T08:21:25.751Z,6.26
2022-11-30T08:22:25.714Z,6.26
2022-11-30T08:23:25.685Z,6.27
2022-11-30T08:24:25.734Z,6.26
2022-11-30T08:25:25.688Z,6.26
2022-11-30T08:26:25.644Z,6.26
2022-11-30T08:27:25.652Z,6.28
2022-11-30T08:28:25.621Z,6.28
2022-11-30T08:29:25.621Z,6.30
2022-11-30T08:30:29.317Z,6.28
2022-11-30T08:31:26.642Z,6.30
2022-11-30T08:32:25.582Z,6.28
2022-11-30T08:33:29.307Z,6.30
2022-11-30T08:34:26.568Z,6.28
2022-11-30T08:35:25.581Z,6.30
2022-11-30T08:36:25.541Z,6.30
2022-11-30T08:37:25.764Z,6.28
2022-11-30T08:38:25.515Z,6.30
2022-11-30T08:39:25.513Z,6.30
2022-11-30T08:40:25.502Z,6.30
2022-11-30T08:41:25.522Z,6.30
2022-11-30T08:42:25.461Z,6.31
2022-11-30T08:43:25.473Z,6.33
2022-11-30T08:44:25.465Z,6.33
2022-11-30T08:45:25.442Z,6.33
2022-11-30T08:46:50.338Z,6.33
2022-11-30T08:47:26.457Z,6.31
2022-11-30T08:48:25.403Z,6.28
2022-11-30T08:49:25.670Z,6.28
2022-11-30T08:50:25.373Z,6.28
2022-11-30T08:51:25.392Z,6.27
2022-11-30T08:52:25.386Z,6.27
2022-11-30T08:53:25.353Z,6.30
2022-11-30T08:54:25.357Z,6.30
2022-11-30T08:55:25.325Z,6.30
2022-11-30T08:56:25.326Z,6.30
2022-11-30T08:57:25.315Z,6.28
2022-11-30T08:58:25.286Z,6.28
2022-11-30T08:59:25.282Z,6.27
2022-11-30T09:00:25.282Z,6.26
2022-11-30T09:01:28.358Z,6.26
2022-11-30T09:02:26.282Z,6.27
2022-11-30T09:03:25.246Z,6.26
2022-11-30T09:04:25.234Z,6.27
2022-11-30T09:05:25.353Z,6.28
2022-11-30T09:06:25.202Z,6.28
2022-11-30T09:07:25.252Z,6.28
2022-11-30T09:08:25.189Z,6.30
2022-11-30T09:09:25.172Z,6.30
2022-11-30T09:10:25.149Z,6.30
2022-11-30T09:11:25.183Z,6.30
2022-11-30T09:12:25.129Z,6.28
2022-11-30T09:13:25.142Z,6.28
2022-11-30T09:14:25.114Z,6.31
2022-11-30T09:15:25.114Z,6.28
2022-11-30T09:16:25.123Z,6.31
2022-11-30T09:17:25.110Z,6.31
2022-11-30T09:18:25.075Z,6.31
2022-11-30T09:19:25.061Z,6.33
2022-11-30T09:20:25.044Z,6.33
2022-11-30T09:21:25.049Z,6.36
2022-11-30T09:22:25.029Z,6.38
2022-11-30T09:23:25.028Z,6.39
2022-11-30T09:24:24.995Z,6.39
2022-11-30T09:25:25.015Z,6.39
2022-11-30T09:26:24.966Z,6.38
2022-11-30T09:27:25.042Z,6.38
2022-11-30T09:28:24.976Z,6.35
2022-11-30T09:29:24.955Z,6.38
2022-11-30T09:30:24.991Z,6.38
2022-11-30T09:31:24.924Z,6.36
2022-11-30T09:32:24.914Z,6.36
2022-11-30T09:33:24.907Z,6.36
2022-11-30T09:34:24.895Z,6.36
2022-11-30T09:35:24.886Z,6.36
2022-11-30T09:36:24.863Z,6.33
2022-11-30T09:37:24.872Z,6.31
2022-11-30T09:38:24.849Z,6.33
2022-11-30T09:39:24.843Z,6.33
2022-11-30T09:40:24.843Z,6.35
2022-11-30T09:41:24.823Z,6.36
2022-11-30T09:42:24.829Z,6.36
2022-11-30T09:43:24.782Z,6.38
2022-11-30T09:44:24.875Z,6.38
2022-11-30T09:45:24.794Z,6.36
2022-11-30T09:46:24.805Z,6.38
2022-11-30T09:47:27.545Z,6.36
2022-11-30T09:48:25.724Z,6.38
2022-11-30T09:49:24.749Z,6.38
2022-11-30T09:50:24.816Z,6.41
2022-11-30T09:51:24.692Z,6.39
2022-11-30T09:52:24.684Z,6.39
2022-11-30T09:53:29.493Z,6.39
2022-11-30T09:54:25.684Z,6.41
2022-11-30T09:55:24.658Z,6.39
2022-11-30T09:56:24.651Z,6.41
2022-11-30T09:57:24.648Z,6.39
2022-11-30T09:58:24.615Z,6.38
2022-11-30T09:59:24.615Z,6.39
2022-11-30T10:00:24.637Z,6.38
2022-11-30T10:01:24.678Z,6.36
2022-11-30T10:02:24.778Z,6.36
2022-11-30T10:03:24.616Z,6.33
2022-11-30T10:04:24.556Z,6.35
2022-11-30T10:05:24.567Z,6.33
2022-11-30T10:06:24.536Z,6.33
2022-11-30T10:07:24.601Z,6.35
2022-11-30T10:08:24.512Z,6.35
2022-11-30T10:09:24.504Z,6.31
2022-11-30T10:10:32.234Z,6.28
2022-11-30T10:11:25.476Z,6.28
2022-11-30T10:12:24.464Z,6.30
2022-11-30T10:13:24.456Z,6.30
2022-11-30T10:14:24.436Z,6.31
2022-11-30T10:15:24.437Z,6.30
2022-11-30T10:16:24.492Z,6.31
2022-11-30T10:17:24.429Z,6.31
2022-11-30T10:18:24.413Z,6.33
2022-11-30T10:19:24.408Z,6.31
2022-11-30T10:20:24.388Z,6.33
2022-11-30T10:21:24.406Z,6.33
2022-11-30T10:22:24.344Z,6.31
2022-11-30T10:23:24.345Z,6.31
2022-11-30T10:24:24.336Z,6.35
2022-11-30T10:25:24.456Z,6.31
2022-11-30T10:26:24.306Z,6.28
2022-11-30T10:27:24.304Z,6.26
2022-11-30T10:28:46.464Z,6.26
2022-11-30T10:29:25.284Z,6.24
2022-11-30T10:30:24.265Z,6.26
2022-11-30T10:31:24.284Z,6.26
2022-11-30T10:32:24.253Z,6.27
2022-11-30T10:33:24.244Z,6.27
2022-11-30T10:34:24.214Z,6.27
2022-11-30T10:35:24.225Z,6.28
2022-11-30T10:36:24.196Z,6.30
2022-11-30T10:37:24.206Z,6.27
2022-11-30T10:38:24.188Z,6.28
2022-11-30T10:39:24.179Z,6.27
2022-11-30T10:40:24.166Z,6.27
2022-11-30T10:41:24.154Z,6.26
2022-11-30T10:42:24.157Z,6.26
2022-11-30T10:43:24.125Z,6.26
2022-11-30T10:44:24.105Z,6.24
2022-11-30T10:45:24.104Z,6.27
2022-11-30T10:46:24.108Z,6.28
2022-11-30T10:47:24.084Z,6.30
2022-11-30T10:48:24.097Z,6.30
2022-11-30T10:49:24.084Z,6.30
2022-11-30T10:50:24.073Z,6.28
2022-11-30T10:51:24.046Z,6.26
2022-11-30T10:52:24.025Z,6.27
2022-11-30T10:53:24.043Z,6.30
2022-11-30T10:54:24.025Z,6.31
2022-11-30T10:55:24.005Z,6.30
2022-11-30T10:56:23.972Z,6.30
2022-11-30T10:57:23.977Z,6.31
2022-11-30T10:58:23.948Z,6.33
2022-11-30T10:59:24.014Z,6.33
2022-11-30T11:00:23.936Z,6.31
2022-11-30T11:01:23.961Z,6.31
2022-11-30T11:02:23.944Z,6.31
2022-11-30T11:03:23.917Z,6.31
2022-11-30T11:04:23.970Z,6.33
2022-11-30T11:05:23.892Z,6.33
2022-11-30T11:06:23.873Z,6.33
2022-11-30T11:07:23.928Z,6.35
2022-11-30T11:08:23.903Z,6.35
2022-11-30T11:09:23.869Z,6.36
2022-11-30T11:10:23.825Z,6.36
2022-11-30T11:11:23.845Z,6.38
2022-11-30T11:12:23.817Z,6.41
2022-11-30T11:13:23.798Z,6.41
2022-11-30T11:14:23.773Z,6.41
2022-11-30T11:15:23.796Z,6.42
2022-11-30T11:16:23.814Z,6.42
2022-11-30T11:17:23.745Z,6.42
2022-11-30T11:18:23.737Z,6.42
2022-11-30T11:19:23.725Z,6.45
2022-11-30T11:20:23.873Z,6.44
2022-11-30T11:21:23.745Z,6.46
2022-11-30T11:22:23.685Z,6.45
2022-11-30T11:23:23.685Z,6.42
2022-11-30T11:24:23.691Z,6.44
2022-11-30T11:25:23.676Z,6.42
2022-11-30T11:26:23.642Z,6.42
2022-11-30T11:27:23.633Z,6.44
2022-11-30T11:28:23.636Z,6.45
2022-11-30T11:29:23.637Z,6.45
2022-11-30T11:30:23.598Z,6.48
2022-11-30T11:31:23.701Z,6.45
2022-11-30T11:32:23.557Z,6.48
2022-11-30T11:33:23.576Z,6.48
2022-11-30T11:34:23.577Z,6.49
2022-11-30T11:35:23.561Z,6.49
2022-11-30T11:36:23.559Z,6.46
2022-11-30T11:37:23.527Z,6.44
2022-11-30T11:38:23.494Z,6.46
2022-11-30T11:39:23.494Z,6.46
2022-11-30T11:40:23.528Z,6.46
2022-11-30T11:41:23.473Z,6.44
2022-11-30T11:42:23.475Z,6.44
2022-11-30T11:43:23.456Z,6.44
2022-11-30T11:44:23.457Z,6.46
2022-11-30T11:45:23.447Z,6.46
2022-11-30T11:46:23.424Z,6.48
2022-11-30T11:47:23.464Z,6.51
2022-11-30T11:48:28.748Z,6.51
2022-11-30T11:49:24.403Z,6.49
2022-11-30T11:50:49.986Z,6.48
2022-11-30T11:51:24.364Z,6.49
2022-11-30T11:52:23.356Z,6.48
2022-11-30T11:53:23.414Z,6.48
2022-11-30T11:54:23.707Z,6.48
2022-11-30T11:55:23.343Z,6.48
2022-11-30T11:56:23.307Z,6.44
2022-11-30T11:57:23.309Z,6.45
2022-11-30T11:58:23.276Z,6.42
2022-11-30T11:59:26.803Z,6.42
2022-11-30T12:00:24.288Z,6.44
2022-11-30T12:01:40.777Z,6.44
2022-11-30T12:02:24.298Z,6.45
2022-11-30T12:03:23.242Z,6.46
2022-11-30T12:04:23.253Z,6.46
2022-11-30T12:05:23.215Z,6.46
2022-11-30T12:06:23.207Z,6.44
2022-11-30T12:07:23.272Z,6.45
2022-11-30T12:08:23.204Z,6.45
2022-11-30T12:09:23.163Z,6.44
2022-11-30T12:10:50.625Z,6.42
2022-11-30T12:11:24.136Z,6.42
2022-11-30T12:12:23.119Z,6.41
2022-11-30T12:13:23.274Z,6.39
2022-11-30T12:14:23.155Z,6.38
2022-11-30T12:15:23.083Z,6.36
2022-11-30T12:16:23.142Z,6.35
2022-11-30T12:17:23.083Z,6.35
2022-11-30T12:18:24.347Z,6.33
2022-11-30T12:19:23.058Z,6.33
2022-11-30T12:20:23.037Z,6.28
2022-11-30T12:21:23.027Z,6.27
2022-11-30T12:22:23.014Z,6.24
2022-11-30T12:23:22.996Z,6.24
2022-11-30T12:24:23.007Z,6.24
2022-11-30T12:25:22.987Z,6.26
2022-11-30T12:26:22.988Z,6.27
2022-11-30T12:27:22.956Z,6.28
2022-11-30T12:28:22.966Z,6.31
2022-11-30T12:29:22.959Z,6.35
2022-11-30T12:30:22.959Z,6.36
2022-11-30T12:31:22.997Z,6.36
2022-11-30T12:32:22.915Z,6.35
2022-11-30T12:33:25.115Z,6.33
2022-11-30T12:34:23.055Z,6.35
2022-11-30T12:35:22.864Z,6.36
2022-11-30T12:36:22.888Z,6.38
2022-11-30T12:37:22.835Z,6.39
2022-11-30T12:38:22.869Z,6.39
2022-11-30T12:39:22.836Z,6.42
2022-11-30T12:40:22.828Z,6.44
2022-11-30T12:41:22.795Z,6.44
2022-11-30T12:42:22.788Z,6.42
2022-11-30T12:43:22.784Z,6.39
2022-11-30T12:44:22.904Z,6.41
2022-11-30T12:45:22.816Z,6.39
2022-11-30T12:46:22.795Z,6.41
2022-11-30T12:47:22.736Z,6.39
2022-11-30T12:48:22.772Z,6.41
2022-11-30T12:49:22.704Z,6.41
2022-11-30T12:50:22.725Z,6.39
2022-11-30T12:51:28.013Z,6.41
2022-11-30T12:52:23.691Z,6.42
2022-11-30T12:53:22.674Z,6.41
2022-11-30T12:54:22.667Z,6.39
2022-11-30T12:55:22.656Z,6.38
2022-11-30T12:56:22.636Z,6.35
2022-11-30T12:57:22.663Z,6.31
2022-11-30T12:58:22.616Z,6.27
2022-11-30T12:59:22.605Z,6.24
2022-11-30T13:00:22.598Z,6.24
2022-11-30T13:01:22.638Z,6.20
2022-11-30T13:02:22.606Z,6.22
2022-11-30T13:03:22.575Z,6.22
2022-11-30T13:04:22.578Z,6.20
2022-11-30T13:05:22.525Z,6.24
2022-11-30T13:06:22.536Z,6.24
2022-11-30T13:07:22.558Z,6.24
2022-11-30T13:08:22.508Z,6.24
2022-11-30T13:09:22.484Z,6.22
2022-11-30T13:10:22.490Z,6.22
2022-11-30T13:11:22.464Z,6.24
2022-11-30T13:12:22.465Z,6.22
2022-11-30T13:13:22.461Z,6.26
2022-11-30T13:14:22.464Z,6.28
2022-11-30T13:15:22.415Z,6.28
2022-11-30T13:16:22.446Z,6.30
2022-11-30T13:17:22.400Z,6.31
2022-11-30T13:18:22.389Z,6.30